sensor_id;sensor_type;location;lat;lon;timestamp;P1;durP1;ratioP1;P2;durP2;ratioP2
32186;SDS011;18686;53.084;8.872;2023-11-21T00:01:26;300.85;;;43.97;;
32186;SDS011;18686;53.084;8.872;2023-11-21T00:03:55;196.35;;;36.25;;
32186;SDS011;18686;53.084;8.872;2023-11-21T00:06:24;204.00;;;38.38;;
32186;SDS011;18686;53.084;8.872;2023-11-21T00:08:52;220.77;;;36.63;;
32186;SDS011;18686;53.084;8.872;2023-11-21T00:11:20;268.92;;;43.08;;
32186;SDS011;18686;53.084;8.872;2023-11-21T00:13:48;231.90;;;38.42;;
32186;SDS011;18686;53.084;8.872;2023-11-21T00:16:17;256.38;;;41.22;;
32186;SDS011;18686;53.084;8.872;2023-11-21T00:18:47;207.95;;;38.38;;
32186;SDS011;18686;53.084;8.872;2023-11-21T00:21:15;162.38;;;33.03;;
32186;SDS011;18686;53.084;8.872;2023-11-21T00:23:43;222.32;;;40.17;;
32186;SDS011;18686;53.084;8.872;2023-11-21T00:26:12;340.20;;;48.75;;
32186;SDS011;18686;53.084;8.872;2023-11-21T00:28:44;271.05;;;43.28;;
32186;SDS011;18686;53.084;8.872;2023-11-21T00:31:13;213.77;;;36.75;;
32186;SDS011;18686;53.084;8.872;2023-11-21T00:33:41;174.82;;;33.92;;
32186;SDS011;18686;53.084;8.872;2023-11-21T00:36:11;195.05;;;34.42;;
32186;SDS011;18686;53.084;8.872;2023-11-21T00:38:39;211.88;;;37.15;;
32186;SDS011;18686;53.084;8.872;2023-11-21T00:41:07;183.40;;;32.50;;
32186;SDS011;18686;53.084;8.872;2023-11-21T00:43:35;208.50;;;35.67;;
32186;SDS011;18686;53.084;8.872;2023-11-21T00:46:04;270.35;;;43.38;;
32186;SDS011;18686;53.084;8.872;2023-11-21T00:48:33;229.07;;;38.80;;
32186;SDS011;18686;53.084;8.872;2023-11-21T00:51:02;222.48;;;37.80;;
32186;SDS011;18686;53.084;8.872;2023-11-21T00:53:31;179.10;;;33.03;;
32186;SDS011;18686;53.084;8.872;2023-11-21T00:55:59;195.55;;;34.30;;
32186;SDS011;18686;53.084;8.872;2023-11-21T00:58:29;167.57;;;31.25;;
32186;SDS011;18686;53.084;8.872;2023-11-21T01:00:57;266.52;;;41.28;;
32186;SDS011;18686;53.084;8.872;2023-11-21T01:03:26;336.30;;;49.50;;
32186;SDS011;18686;53.084;8.872;2023-11-21T01:05:54;213.52;;;39.70;;
32186;SDS011;18686;53.084;8.872;2023-11-21T01:08:22;288.58;;;44.08;;
32186;SDS011;18686;53.084;8.872;2023-11-21T01:10:52;249.20;;;42.63;;
32186;SDS011;18686;53.084;8.872;2023-11-21T01:13:21;294.08;;;47.60;;
32186;SDS011;18686;53.084;8.872;2023-11-21T01:15:49;259.83;;;42.90;;
32186;SDS011;18686;53.084;8.872;2023-11-21T01:18:19;340.67;;;51.55;;
32186;SDS011;18686;53.084;8.872;2023-11-21T01:20:47;347.23;;;54.75;;
32186;SDS011;18686;53.084;8.872;2023-11-21T01:23:15;295.42;;;45.97;;
32186;SDS011;18686;53.084;8.872;2023-11-21T01:25:43;293.83;;;48.75;;
32186;SDS011;18686;53.084;8.872;2023-11-21T01:28:13;302.52;;;47.83;;
32186;SDS011;18686;53.084;8.872;2023-11-21T01:30:41;231.07;;;41.72;;
32186;SDS011;18686;53.084;8.872;2023-11-21T01:33:11;274.23;;;46.70;;
32186;SDS011;18686;53.084;8.872;2023-11-21T01:35:39;293.65;;;48.10;;
32186;SDS011;18686;53.084;8.872;2023-11-21T01:38:08;254.80;;;43.25;;
32186;SDS011;18686;53.084;8.872;2023-11-21T01:40:37;232.73;;;41.67;;
32186;SDS011;18686;53.084;8.872;2023-11-21T01:43:05;233.52;;;40.63;;
32186;SDS011;18686;53.084;8.872;2023-11-21T01:45:36;311.60;;;48.17;;
32186;SDS011;18686;53.084;8.872;2023-11-21T01:48:05;220.73;;;38.25;;
32186;SDS011;18686;53.084;8.872;2023-11-21T01:50:34;314.08;;;48.08;;
32186;SDS011;18686;53.084;8.872;2023-11-21T01:53:02;210.95;;;37.58;;
32186;SDS011;18686;53.084;8.872;2023-11-21T01:55:32;241.77;;;41.35;;
32186;SDS011;18686;53.084;8.872;2023-11-21T01:58:01;291.33;;;45.05;;
32186;SDS011;18686;53.084;8.872;2023-11-21T02:00:30;217.15;;;37.40;;
32186;SDS011;18686;53.084;8.872;2023-11-21T02:03:02;207.35;;;37.25;;
32186;SDS011;18686;53.084;8.872;2023-11-21T02:05:30;222.35;;;38.00;;
32186;SDS011;18686;53.084;8.872;2023-11-21T02:07:59;200.20;;;35.85;;
32186;SDS011;18686;53.084;8.872;2023-11-21T02:10:27;294.50;;;42.40;;
32186;SDS011;18686;53.084;8.872;2023-11-21T02:12:57;217.57;;;36.33;;
32186;SDS011;18686;53.084;8.872;2023-11-21T02:15:27;233.68;;;35.95;;
32186;SDS011;18686;53.084;8.872;2023-11-21T02:17:56;250.45;;;40.08;;
32186;SDS011;18686;53.084;8.872;2023-11-21T02:20:27;213.23;;;33.80;;
32186;SDS011;18686;53.084;8.872;2023-11-21T02:22:57;202.60;;;36.08;;
32186;SDS011;18686;53.084;8.872;2023-11-21T02:25:27;170.52;;;33.25;;
32186;SDS011;18686;53.084;8.872;2023-11-21T02:27:57;221.75;;;37.50;;
32186;SDS011;18686;53.084;8.872;2023-11-21T02:30:26;229.48;;;41.05;;
32186;SDS011;18686;53.084;8.872;2023-11-21T02:32:55;211.90;;;38.22;;
32186;SDS011;18686;53.084;8.872;2023-11-21T02:35:24;183.48;;;33.03;;
32186;SDS011;18686;53.084;8.872;2023-11-21T02:37:53;210.95;;;33.45;;
32186;SDS011;18686;53.084;8.872;2023-11-21T02:40:23;207.60;;;32.53;;
32186;SDS011;18686;53.084;8.872;2023-11-21T02:42:53;190.02;;;31.05;;
32186;SDS011;18686;53.084;8.872;2023-11-21T02:45:24;262.02;;;35.42;;
32186;SDS011;18686;53.084;8.872;2023-11-21T02:47:52;305.27;;;39.97;;
32186;SDS011;18686;53.084;8.872;2023-11-21T02:50:25;312.05;;;38.63;;
32186;SDS011;18686;53.084;8.872;2023-11-21T02:52:53;234.98;;;34.50;;
32186;SDS011;18686;53.084;8.872;2023-11-21T02:55:25;224.65;;;31.65;;
32186;SDS011;18686;53.084;8.872;2023-11-21T02:57:53;262.92;;;33.40;;
32186;SDS011;18686;53.084;8.872;2023-11-21T03:00:23;235.73;;;31.40;;
32186;SDS011;18686;53.084;8.872;2023-11-21T03:02:52;236.15;;;32.15;;
32186;SDS011;18686;53.084;8.872;2023-11-21T03:05:22;319.92;;;36.92;;
32186;SDS011;18686;53.084;8.872;2023-11-21T03:07:50;289.50;;;36.17;;
32186;SDS011;18686;53.084;8.872;2023-11-21T03:10:18;308.10;;;39.58;;
32186;SDS011;18686;53.084;8.872;2023-11-21T03:12:48;309.95;;;37.83;;
32186;SDS011;18686;53.084;8.872;2023-11-21T03:15:16;359.92;;;42.80;;
32186;SDS011;18686;53.084;8.872;2023-11-21T03:17:44;340.77;;;40.53;;
32186;SDS011;18686;53.084;8.872;2023-11-21T03:20:13;308.67;;;39.03;;
32186;SDS011;18686;53.084;8.872;2023-11-21T03:22:42;390.23;;;46.53;;
32186;SDS011;18686;53.084;8.872;2023-11-21T03:25:11;340.55;;;43.75;;
32186;SDS011;18686;53.084;8.872;2023-11-21T03:27:39;311.10;;;39.97;;
32186;SDS011;18686;53.084;8.872;2023-11-21T03:30:11;354.83;;;44.20;;
32186;SDS011;18686;53.084;8.872;2023-11-21T03:32:41;324.67;;;43.90;;
32186;SDS011;18686;53.084;8.872;2023-11-21T03:35:09;393.60;;;47.85;;
32186;SDS011;18686;53.084;8.872;2023-11-21T03:37:37;382.27;;;46.63;;
32186;SDS011;18686;53.084;8.872;2023-11-21T03:40:08;357.65;;;44.97;;
32186;SDS011;18686;53.084;8.872;2023-11-21T03:42:39;314.88;;;40.35;;
32186;SDS011;18686;53.084;8.872;2023-11-21T03:45:07;328.52;;;42.22;;
32186;SDS011;18686;53.084;8.872;2023-11-21T03:47:37;466.73;;;62.42;;
32186;SDS011;18686;53.084;8.872;2023-11-21T03:50:07;474.73;;;59.83;;
32186;SDS011;18686;53.084;8.872;2023-11-21T03:52:36;390.48;;;53.53;;
32186;SDS011;18686;53.084;8.872;2023-11-21T03:55:05;402.25;;;51.25;;
32186;SDS011;18686;53.084;8.872;2023-11-21T03:57:33;460.67;;;56.92;;
32186;SDS011;18686;53.084;8.872;2023-11-21T04:00:03;452.42;;;59.70;;
32186;SDS011;18686;53.084;8.872;2023-11-21T04:02:39;382.05;;;50.47;;
32186;SDS011;18686;53.084;8.872;2023-11-21T04:05:08;480.10;;;64.28;;
32186;SDS011;18686;53.084;8.872;2023-11-21T04:07:36;411.02;;;53.88;;
32186;SDS011;18686;53.084;8.872;2023-11-21T04:10:06;452.33;;;60.47;;
32186;SDS011;18686;53.084;8.872;2023-11-21T04:12:36;452.55;;;61.22;;
32186;SDS011;18686;53.084;8.872;2023-11-21T04:15:04;400.20;;;57.80;;
32186;SDS011;18686;53.084;8.872;2023-11-21T04:17:35;416.05;;;59.05;;
32186;SDS011;18686;53.084;8.872;2023-11-21T04:20:06;530.05;;;75.90;;
32186;SDS011;18686;53.084;8.872;2023-11-21T04:22:37;439.35;;;64.57;;
32186;SDS011;18686;53.084;8.872;2023-11-21T04:25:08;426.30;;;61.80;;
32186;SDS011;18686;53.084;8.872;2023-11-21T04:27:38;452.00;;;67.28;;
32186;SDS011;18686;53.084;8.872;2023-11-21T04:30:07;433.42;;;62.80;;
32186;SDS011;18686;53.084;8.872;2023-11-21T04:32:38;378.48;;;54.55;;
32186;SDS011;18686;53.084;8.872;2023-11-21T04:35:10;396.83;;;54.83;;
32186;SDS011;18686;53.084;8.872;2023-11-21T04:37:38;286.77;;;42.80;;
32186;SDS011;18686;53.084;8.872;2023-11-21T04:40:08;252.43;;;39.67;;
32186;SDS011;18686;53.084;8.872;2023-11-21T04:42:37;283.73;;;38.53;;
32186;SDS011;18686;53.084;8.872;2023-11-21T04:45:06;215.48;;;34.55;;
32186;SDS011;18686;53.084;8.872;2023-11-21T04:47:38;249.00;;;35.33;;
32186;SDS011;18686;53.084;8.872;2023-11-21T04:50:07;248.63;;;36.50;;
32186;SDS011;18686;53.084;8.872;2023-11-21T04:52:37;195.73;;;32.22;;
32186;SDS011;18686;53.084;8.872;2023-11-21T04:55:06;197.02;;;33.28;;
32186;SDS011;18686;53.084;8.872;2023-11-21T04:57:37;218.65;;;34.05;;
32186;SDS011;18686;53.084;8.872;2023-11-21T05:00:09;214.93;;;33.17;;
32186;SDS011;18686;53.084;8.872;2023-11-21T05:02:40;236.15;;;33.03;;
32186;SDS011;18686;53.084;8.872;2023-11-21T05:05:11;178.70;;;30.45;;
32186;SDS011;18686;53.084;8.872;2023-11-21T05:07:42;240.73;;;36.95;;
32186;SDS011;18686;53.084;8.872;2023-11-21T05:10:12;233.48;;;36.92;;
32186;SDS011;18686;53.084;8.872;2023-11-21T05:12:41;227.57;;;35.72;;
32186;SDS011;18686;53.084;8.872;2023-11-21T05:15:13;245.20;;;36.17;;
32186;SDS011;18686;53.084;8.872;2023-11-21T05:17:44;232.67;;;36.67;;
32186;SDS011;18686;53.084;8.872;2023-11-21T05:20:14;234.25;;;36.28;;
32186;SDS011;18686;53.084;8.872;2023-11-21T05:22:52;234.80;;;37.17;;
32186;SDS011;18686;53.084;8.872;2023-11-21T05:25:25;247.23;;;39.75;;
32186;SDS011;18686;53.084;8.872;2023-11-21T05:27:56;219.77;;;34.75;;
32186;SDS011;18686;53.084;8.872;2023-11-21T05:30:27;203.25;;;34.33;;
32186;SDS011;18686;53.084;8.872;2023-11-21T05:32:56;231.10;;;35.28;;
32186;SDS011;18686;53.084;8.872;2023-11-21T05:35:24;207.95;;;34.53;;
32186;SDS011;18686;53.084;8.872;2023-11-21T05:37:54;208.13;;;34.88;;
32186;SDS011;18686;53.084;8.872;2023-11-21T05:40:23;209.75;;;34.58;;
32186;SDS011;18686;53.084;8.872;2023-11-21T05:42:53;222.63;;;33.60;;
32186;SDS011;18686;53.084;8.872;2023-11-21T05:45:22;229.80;;;37.05;;
32186;SDS011;18686;53.084;8.872;2023-11-21T05:47:50;211.98;;;33.05;;
32186;SDS011;18686;53.084;8.872;2023-11-21T05:50:19;220.63;;;35.95;;
32186;SDS011;18686;53.084;8.872;2023-11-21T05:52:50;190.23;;;33.70;;
32186;SDS011;18686;53.084;8.872;2023-11-21T05:55:22;210.32;;;35.13;;
32186;SDS011;18686;53.084;8.872;2023-11-21T06:00:21;203.30;;;34.85;;
32186;SDS011;18686;53.084;8.872;2023-11-21T06:02:52;226.32;;;36.03;;
32186;SDS011;18686;53.084;8.872;2023-11-21T06:05:23;205.10;;;34.63;;
32186;SDS011;18686;53.084;8.872;2023-11-21T06:07:54;222.02;;;35.40;;
32186;SDS011;18686;53.084;8.872;2023-11-21T06:10:27;204.48;;;34.70;;
32186;SDS011;18686;53.084;8.872;2023-11-21T06:12:56;173.90;;;32.40;;
32186;SDS011;18686;53.084;8.872;2023-11-21T06:15:29;207.95;;;36.00;;
32186;SDS011;18686;53.084;8.872;2023-11-21T06:17:58;189.45;;;33.00;;
32186;SDS011;18686;53.084;8.872;2023-11-21T06:20:26;209.55;;;37.65;;
32186;SDS011;18686;53.084;8.872;2023-11-21T06:22:55;183.93;;;32.40;;
32186;SDS011;18686;53.084;8.872;2023-11-21T06:25:24;191.85;;;31.83;;
32186;SDS011;18686;53.084;8.872;2023-11-21T06:27:58;189.82;;;32.35;;
32186;SDS011;18686;53.084;8.872;2023-11-21T06:30:27;180.57;;;34.15;;
32186;SDS011;18686;53.084;8.872;2023-11-21T06:32:59;163.50;;;30.75;;
32186;SDS011;18686;53.084;8.872;2023-11-21T06:35:33;186.45;;;33.22;;
32186;SDS011;18686;53.084;8.872;2023-11-21T06:38:05;192.65;;;35.03;;
32186;SDS011;18686;53.084;8.872;2023-11-21T06:40:37;212.35;;;36.88;;
32186;SDS011;18686;53.084;8.872;2023-11-21T06:43:08;168.97;;;32.63;;
32186;SDS011;18686;53.084;8.872;2023-11-21T06:45:37;187.02;;;34.80;;
32186;SDS011;18686;53.084;8.872;2023-11-21T06:48:06;183.10;;;34.17;;
32186;SDS011;18686;53.084;8.872;2023-11-21T06:50:35;191.63;;;34.15;;
32186;SDS011;18686;53.084;8.872;2023-11-21T06:53:04;202.82;;;34.30;;
32186;SDS011;18686;53.084;8.872;2023-11-21T06:55:34;212.48;;;36.60;;
32186;SDS011;18686;53.084;8.872;2023-11-21T06:58:04;191.98;;;33.95;;
32186;SDS011;18686;53.084;8.872;2023-11-21T07:00:33;193.73;;;35.45;;
32186;SDS011;18686;53.084;8.872;2023-11-21T07:03:02;189.18;;;34.90;;
32186;SDS011;18686;53.084;8.872;2023-11-21T07:05:35;189.48;;;34.90;;
32186;SDS011;18686;53.084;8.872;2023-11-21T07:08:03;183.55;;;34.40;;
32186;SDS011;18686;53.084;8.872;2023-11-21T07:10:35;183.70;;;35.33;;
32186;SDS011;18686;53.084;8.872;2023-11-21T07:13:06;181.55;;;33.38;;
32186;SDS011;18686;53.084;8.872;2023-11-21T07:15:39;176.75;;;33.58;;
32186;SDS011;18686;53.084;8.872;2023-11-21T07:18:08;211.77;;;36.72;;
32186;SDS011;18686;53.084;8.872;2023-11-21T07:20:39;251.23;;;40.70;;
32186;SDS011;18686;53.084;8.872;2023-11-21T07:23:07;235.70;;;38.20;;
32186;SDS011;18686;53.084;8.872;2023-11-21T07:25:37;192.30;;;34.75;;
32186;SDS011;18686;53.084;8.872;2023-11-21T07:28:06;210.27;;;36.22;;
32186;SDS011;18686;53.084;8.872;2023-11-21T07:30:35;218.10;;;36.13;;
32186;SDS011;18686;53.084;8.872;2023-11-21T07:33:04;158.13;;;32.35;;
32186;SDS011;18686;53.084;8.872;2023-11-21T07:35:33;174.50;;;32.20;;
32186;SDS011;18686;53.084;8.872;2023-11-21T07:38:02;175.43;;;32.85;;
32186;SDS011;18686;53.084;8.872;2023-11-21T07:40:30;178.43;;;33.22;;
32186;SDS011;18686;53.084;8.872;2023-11-21T07:42:59;172.60;;;33.17;;
32186;SDS011;18686;53.084;8.872;2023-11-21T07:45:29;196.70;;;36.35;;
32186;SDS011;18686;53.084;8.872;2023-11-21T07:47:59;211.73;;;37.50;;
32186;SDS011;18686;53.084;8.872;2023-11-21T07:50:31;210.07;;;36.22;;
32186;SDS011;18686;53.084;8.872;2023-11-21T07:53:01;204.80;;;35.35;;
32186;SDS011;18686;53.084;8.872;2023-11-21T07:55:33;192.90;;;35.72;;
32186;SDS011;18686;53.084;8.872;2023-11-21T07:58:03;198.73;;;38.53;;
32186;SDS011;18686;53.084;8.872;2023-11-21T08:00:32;157.57;;;33.97;;
32186;SDS011;18686;53.084;8.872;2023-11-21T08:03:01;210.98;;;35.67;;
32186;SDS011;18686;53.084;8.872;2023-11-21T08:05:29;212.65;;;38.20;;
32186;SDS011;18686;53.084;8.872;2023-11-21T08:08:03;188.48;;;35.40;;
32186;SDS011;18686;53.084;8.872;2023-11-21T08:10:32;198.57;;;37.40;;
32186;SDS011;18686;53.084;8.872;2023-11-21T08:13:00;184.40;;;35.67;;
32186;SDS011;18686;53.084;8.872;2023-11-21T08:15:29;170.48;;;34.55;;
32186;SDS011;18686;53.084;8.872;2023-11-21T08:17:59;210.48;;;38.45;;
32186;SDS011;18686;53.084;8.872;2023-11-21T08:20:28;164.73;;;33.78;;
32186;SDS011;18686;53.084;8.872;2023-11-21T08:22:56;139.32;;;31.45;;
32186;SDS011;18686;53.084;8.872;2023-11-21T08:25:25;204.23;;;36.10;;
32186;SDS011;18686;53.084;8.872;2023-11-21T08:27:53;215.10;;;38.67;;
32186;SDS011;18686;53.084;8.872;2023-11-21T08:30:21;150.07;;;34.42;;
32186;SDS011;18686;53.084;8.872;2023-11-21T08:32:50;173.65;;;34.83;;
32186;SDS011;18686;53.084;8.872;2023-11-21T08:35:21;162.60;;;34.45;;
32186;SDS011;18686;53.084;8.872;2023-11-21T08:37:50;171.18;;;33.17;;
32186;SDS011;18686;53.084;8.872;2023-11-21T08:40:19;119.28;;;29.90;;
32186;SDS011;18686;53.084;8.872;2023-11-21T08:42:48;171.93;;;34.78;;
32186;SDS011;18686;53.084;8.872;2023-11-21T08:45:18;193.13;;;36.88;;
32186;SDS011;18686;53.084;8.872;2023-11-21T08:47:47;203.57;;;36.88;;
32186;SDS011;18686;53.084;8.872;2023-11-21T08:50:17;119.97;;;28.85;;
32186;SDS011;18686;53.084;8.872;2023-11-21T08:52:47;134.90;;;30.38;;
32186;SDS011;18686;53.084;8.872;2023-11-21T08:55:16;111.15;;;26.50;;
32186;SDS011;18686;53.084;8.872;2023-11-21T08:57:46;151.05;;;31.15;;
32186;SDS011;18686;53.084;8.872;2023-11-21T09:00:15;102.80;;;26.65;;
32186;SDS011;18686;53.084;8.872;2023-11-21T09:02:44;121.03;;;27.27;;
32186;SDS011;18686;53.084;8.872;2023-11-21T09:05:13;130.00;;;29.90;;
32186;SDS011;18686;53.084;8.872;2023-11-21T09:07:42;115.10;;;26.63;;
32186;SDS011;18686;53.084;8.872;2023-11-21T09:10:14;119.18;;;28.15;;
32186;SDS011;18686;53.084;8.872;2023-11-21T09:12:42;93.18;;;25.80;;
32186;SDS011;18686;53.084;8.872;2023-11-21T09:15:11;116.13;;;27.33;;
32186;SDS011;18686;53.084;8.872;2023-11-21T09:17:41;120.80;;;28.42;;
32186;SDS011;18686;53.084;8.872;2023-11-21T09:20:11;96.25;;;22.60;;
32186;SDS011;18686;53.084;8.872;2023-11-21T09:22:41;107.82;;;25.70;;
32186;SDS011;18686;53.084;8.872;2023-11-21T09:25:11;93.53;;;24.40;;
32186;SDS011;18686;53.084;8.872;2023-11-21T09:27:41;97.25;;;23.23;;
32186;SDS011;18686;53.084;8.872;2023-11-21T09:30:10;65.90;;;21.25;;
32186;SDS011;18686;53.084;8.872;2023-11-21T09:32:41;77.82;;;18.70;;
32186;SDS011;18686;53.084;8.872;2023-11-21T09:35:12;69.20;;;19.75;;
32186;SDS011;18686;53.084;8.872;2023-11-21T09:37:42;70.57;;;18.85;;
32186;SDS011;18686;53.084;8.872;2023-11-21T09:40:17;74.25;;;20.60;;
32186;SDS011;18686;53.084;8.872;2023-11-21T09:45:24;104.05;;;21.70;;
32186;SDS011;18686;53.084;8.872;2023-11-21T09:47:54;79.80;;;20.83;;
32186;SDS011;18686;53.084;8.872;2023-11-21T09:50:24;84.72;;;22.27;;
32186;SDS011;18686;53.084;8.872;2023-11-21T09:53:03;89.25;;;22.73;;
32186;SDS011;18686;53.084;8.872;2023-11-21T09:55:44;60.38;;;20.20;;
32186;SDS011;18686;53.084;8.872;2023-11-21T09:58:14;71.82;;;18.45;;
32186;SDS011;18686;53.084;8.872;2023-11-21T10:00:43;80.95;;;21.50;;
32186;SDS011;18686;53.084;8.872;2023-11-21T10:03:12;68.32;;;19.67;;
32186;SDS011;18686;53.084;8.872;2023-11-21T10:05:42;85.43;;;21.95;;
32186;SDS011;18686;53.084;8.872;2023-11-21T10:08:13;66.00;;;17.10;;
32186;SDS011;18686;53.084;8.872;2023-11-21T10:10:44;81.63;;;20.58;;
32186;SDS011;18686;53.084;8.872;2023-11-21T10:13:15;56.10;;;17.90;;
32186;SDS011;18686;53.084;8.872;2023-11-21T10:15:48;57.03;;;17.33;;
32186;SDS011;18686;53.084;8.872;2023-11-21T10:18:18;43.22;;;16.17;;
32186;SDS011;18686;53.084;8.872;2023-11-21T10:20:48;58.03;;;17.73;;
32186;SDS011;18686;53.084;8.872;2023-11-21T10:23:20;48.00;;;16.27;;
32186;SDS011;18686;53.084;8.872;2023-11-21T10:25:52;43.20;;;16.48;;
32186;SDS011;18686;53.084;8.872;2023-11-21T10:28:25;61.45;;;18.75;;
32186;SDS011;18686;53.084;8.872;2023-11-21T10:30:55;61.83;;;16.83;;
32186;SDS011;18686;53.084;8.872;2023-11-21T10:33:26;47.60;;;15.50;;
32186;SDS011;18686;53.084;8.872;2023-11-21T10:35:56;41.40;;;16.90;;
32186;SDS011;18686;53.084;8.872;2023-11-21T10:38:24;41.50;;;15.50;;
32186;SDS011;18686;53.084;8.872;2023-11-21T10:40:55;41.33;;;14.02;;
32186;SDS011;18686;53.084;8.872;2023-11-21T10:43:24;51.30;;;15.30;;
32186;SDS011;18686;53.084;8.872;2023-11-21T10:45:55;37.92;;;14.73;;
32186;SDS011;18686;53.084;8.872;2023-11-21T10:48:26;31.33;;;13.65;;
32186;SDS011;18686;53.084;8.872;2023-11-21T10:50:54;33.05;;;14.05;;
32186;SDS011;18686;53.084;8.872;2023-11-21T10:53:23;36.72;;;12.60;;
32186;SDS011;18686;53.084;8.872;2023-11-21T10:56:02;34.63;;;12.65;;
32186;SDS011;18686;53.084;8.872;2023-11-21T10:58:34;29.67;;;12.57;;
32186;SDS011;18686;53.084;8.872;2023-11-21T11:01:05;30.15;;;12.32;;
32186;SDS011;18686;53.084;8.872;2023-11-21T11:03:34;26.90;;;12.68;;
32186;SDS011;18686;53.084;8.872;2023-11-21T11:06:04;39.30;;;14.02;;
32186;SDS011;18686;53.084;8.872;2023-11-21T11:08:38;24.80;;;12.18;;
32186;SDS011;18686;53.084;8.872;2023-11-21T11:11:09;33.53;;;13.82;;
32186;SDS011;18686;53.084;8.872;2023-11-21T11:13:39;25.58;;;12.57;;
32186;SDS011;18686;53.084;8.872;2023-11-21T11:18:44;34.63;;;13.35;;
32186;SDS011;18686;53.084;8.872;2023-11-21T11:21:16;35.42;;;14.50;;
32186;SDS011;18686;53.084;8.872;2023-11-21T11:23:58;30.40;;;12.15;;
32186;SDS011;18686;53.084;8.872;2023-11-21T11:27:01;22.70;;;11.63;;
32186;SDS011;18686;53.084;8.872;2023-11-21T11:29:39;29.67;;;13.23;;
32186;SDS011;18686;53.084;8.872;2023-11-21T11:32:16;24.00;;;12.10;;
32186;SDS011;18686;53.084;8.872;2023-11-21T11:35:01;30.17;;;12.30;;
32186;SDS011;18686;53.084;8.872;2023-11-21T11:37:37;41.92;;;14.75;;
32186;SDS011;18686;53.084;8.872;2023-11-21T11:40:06;34.65;;;13.15;;
32186;SDS011;18686;53.084;8.872;2023-11-21T11:42:36;33.72;;;11.82;;
32186;SDS011;18686;53.084;8.872;2023-11-21T11:45:17;31.88;;;12.55;;
32186;SDS011;18686;53.084;8.872;2023-11-21T11:47:46;26.80;;;10.63;;
32186;SDS011;18686;53.084;8.872;2023-11-21T11:50:17;26.13;;;11.10;;
32186;SDS011;18686;53.084;8.872;2023-11-21T11:52:47;16.65;;;10.30;;
32186;SDS011;18686;53.084;8.872;2023-11-21T11:55:19;18.02;;;10.13;;
32186;SDS011;18686;53.084;8.872;2023-11-21T11:57:50;10.65;;;8.48;;
32186;SDS011;18686;53.084;8.872;2023-11-21T12:00:20;10.50;;;7.82;;
32186;SDS011;18686;53.084;8.872;2023-11-21T12:02:52;9.98;;;7.60;;
32186;SDS011;18686;53.084;8.872;2023-11-21T12:05:21;8.30;;;7.43;;
32186;SDS011;18686;53.084;8.872;2023-11-21T12:07:50;18.85;;;7.45;;
32186;SDS011;18686;53.084;8.872;2023-11-21T12:10:22;9.85;;;6.03;;
32186;SDS011;18686;53.084;8.872;2023-11-21T12:12:53;8.40;;;5.85;;
32186;SDS011;18686;53.084;8.872;2023-11-21T12:15:22;12.32;;;7.70;;
32186;SDS011;18686;53.084;8.872;2023-11-21T12:17:52;11.45;;;7.65;;
32186;SDS011;18686;53.084;8.872;2023-11-21T12:20:21;16.17;;;8.23;;
32186;SDS011;18686;53.084;8.872;2023-11-21T12:22:51;24.20;;;8.90;;
32186;SDS011;18686;53.084;8.872;2023-11-21T12:25:19;29.20;;;10.38;;
32186;SDS011;18686;53.084;8.872;2023-11-21T12:27:49;25.75;;;10.27;;
32186;SDS011;18686;53.084;8.872;2023-11-21T12:30:20;27.10;;;10.13;;
32186;SDS011;18686;53.084;8.872;2023-11-21T12:32:50;25.65;;;9.95;;
32186;SDS011;18686;53.084;8.872;2023-11-21T12:35:20;26.83;;;10.55;;
32186;SDS011;18686;53.084;8.872;2023-11-21T12:37:50;24.67;;;10.02;;
32186;SDS011;18686;53.084;8.872;2023-11-21T12:40:20;30.35;;;10.38;;
32186;SDS011;18686;53.084;8.872;2023-11-21T12:42:51;18.15;;;9.00;;
32186;SDS011;18686;53.084;8.872;2023-11-21T12:45:22;31.38;;;11.13;;
32186;SDS011;18686;53.084;8.872;2023-11-21T12:47:54;20.15;;;8.82;;
32186;SDS011;18686;53.084;8.872;2023-11-21T12:50:27;22.77;;;9.23;;
32186;SDS011;18686;53.084;8.872;2023-11-21T12:52:59;26.88;;;9.77;;
32186;SDS011;18686;53.084;8.872;2023-11-21T12:55:30;18.20;;;7.72;;
32186;SDS011;18686;53.084;8.872;2023-11-21T12:58:00;19.88;;;7.03;;
32186;SDS011;18686;53.084;8.872;2023-11-21T13:00:37;18.52;;;7.75;;
32186;SDS011;18686;53.084;8.872;2023-11-21T13:03:09;19.05;;;7.28;;
32186;SDS011;18686;53.084;8.872;2023-11-21T13:05:44;17.33;;;6.47;;
32186;SDS011;18686;53.084;8.872;2023-11-21T13:08:19;13.65;;;7.18;;
32186;SDS011;18686;53.084;8.872;2023-11-21T13:10:50;18.20;;;7.80;;
32186;SDS011;18686;53.084;8.872;2023-11-21T13:13:21;16.58;;;6.85;;
32186;SDS011;18686;53.084;8.872;2023-11-21T13:15:52;13.55;;;6.35;;
32186;SDS011;18686;53.084;8.872;2023-11-21T13:18:23;16.83;;;6.78;;
32186;SDS011;18686;53.084;8.872;2023-11-21T13:20:53;18.77;;;6.85;;
32186;SDS011;18686;53.084;8.872;2023-11-21T13:23:23;20.05;;;7.28;;
32186;SDS011;18686;53.084;8.872;2023-11-21T13:25:52;23.98;;;7.95;;
32186;SDS011;18686;53.084;8.872;2023-11-21T13:28:30;17.80;;;7.40;;
32186;SDS011;18686;53.084;8.872;2023-11-21T13:31:02;22.70;;;8.30;;
32186;SDS011;18686;53.084;8.872;2023-11-21T13:33:37;27.30;;;8.85;;
32186;SDS011;18686;53.084;8.872;2023-11-21T13:36:09;26.67;;;8.90;;
32186;SDS011;18686;53.084;8.872;2023-11-21T13:38:40;23.45;;;8.55;;
32186;SDS011;18686;53.084;8.872;2023-11-21T13:41:10;23.40;;;8.15;;
32186;SDS011;18686;53.084;8.872;2023-11-21T13:43:41;21.23;;;7.78;;
32186;SDS011;18686;53.084;8.872;2023-11-21T13:46:16;19.80;;;7.78;;
32186;SDS011;18686;53.084;8.872;2023-11-21T13:48:49;18.73;;;7.80;;
32186;SDS011;18686;53.084;8.872;2023-11-21T13:51:23;20.30;;;7.80;;
32186;SDS011;18686;53.084;8.872;2023-11-21T13:54:00;27.13;;;8.95;;
32186;SDS011;18686;53.084;8.872;2023-11-21T13:56:32;25.25;;;11.15;;
32186;SDS011;18686;53.084;8.872;2023-11-21T13:59:00;34.92;;;14.38;;
32186;SDS011;18686;53.084;8.872;2023-11-21T14:01:37;24.27;;;11.40;;
32186;SDS011;18686;53.084;8.872;2023-11-21T14:04:28;23.70;;;9.38;;
32186;SDS011;18686;53.084;8.872;2023-11-21T14:07:10;24.48;;;9.63;;
32186;SDS011;18686;53.084;8.872;2023-11-21T14:09:49;23.23;;;9.00;;
32186;SDS011;18686;53.084;8.872;2023-11-21T14:12:19;24.77;;;8.70;;
32186;SDS011;18686;53.084;8.872;2023-11-21T14:14:48;19.60;;;8.30;;
32186;SDS011;18686;53.084;8.872;2023-11-21T14:17:18;30.05;;;10.52;;
32186;SDS011;18686;53.084;8.872;2023-11-21T14:19:49;22.73;;;9.50;;
32186;SDS011;18686;53.084;8.872;2023-11-21T14:22:17;23.73;;;9.23;;
32186;SDS011;18686;53.084;8.872;2023-11-21T14:24:47;22.98;;;9.15;;
32186;SDS011;18686;53.084;8.872;2023-11-21T14:27:19;28.30;;;9.82;;
32186;SDS011;18686;53.084;8.872;2023-11-21T14:29:47;25.42;;;10.43;;
32186;SDS011;18686;53.084;8.872;2023-11-21T14:32:15;28.83;;;10.25;;
32186;SDS011;18686;53.084;8.872;2023-11-21T14:34:45;25.60;;;9.95;;
32186;SDS011;18686;53.084;8.872;2023-11-21T14:37:14;49.65;;;16.13;;
32186;SDS011;18686;53.084;8.872;2023-11-21T14:39:42;49.15;;;18.25;;
32186;SDS011;18686;53.084;8.872;2023-11-21T14:42:14;34.10;;;16.15;;